Mounds View, Minnesota
Current Conditions -  °F | °C
As of 3:34 AM on Friday 24 Oct 2014 (Local Time) from KANE Reporting Station
Clear Clear  
Wind Chill: 10°   Ceiling: Unl
Heat Index: 10°   Visibility: 7mi
Dew Point:   Wind: 6mph
Humidity: 94%   Direction: 140°SE
Pressure: 29.94"   Gusts: NA
Location:  45.0755°N, 93.1911°W
Report Text: KANE 240834Z AUTO 14005KT 7SM CLR 10/09 A2994 RMK AO2
Loading
Personal Weather Stations






























Interactive Weather Map
Tropical Storm Tracking
New forecast layout! Learn more

10-Day Weather Forecast

Advertisements
Track Severe Weather on mobile